Time;durP1;ratioP1;P1;durP2;ratioP2;P2;SDS_P1;SDS_P2;PMS_P1;PMS_P2;Temp;Humidity;BMP_temperature;BMP_pressure;BME280_temperature;BME280_humidity;BME280_pressure;Samples;Min_cycle;Max_cycle;Signal;HPM_P1;HPM_P2
2024/03/22 00:02:24;;;;;;;0.20;0.20;;;;;;;;;;5034077;28;20390;-87
2024/03/22 00:04:49;;;;;;;1.00;0.25;;;;;;;;;;5050616;28;20265;-88
2024/03/22 00:07:15;;;;;;;0.10;0.10;;;;;;;;;;5053960;28;20217;-89
2024/03/22 00:09:41;;;;;;;0.20;0.20;;;;;;;;;;5038219;28;20068;-88
2024/03/22 00:12:08;;;;;;;0.20;0.20;;;;;;;;;;5038028;28;20044;-88
2024/03/22 00:14:34;;;;;;;1.17;0.40;;;;;;;;;;5054713;28;20143;-88
2024/03/22 00:17:00;;;;;;;0.40;0.40;;;;;;;;;;5038093;28;20141;-89
2024/03/22 00:19:26;;;;;;;0.20;0.20;;;;;;;;;;5038304;28;20697;-87
2024/03/22 00:21:52;;;;;;;0.30;0.30;;;;;;;;;;5037817;28;20044;-89
2024/03/22 00:24:18;;;;;;;0.10;0.10;;;;;;;;;;5037838;28;20094;-88
2024/03/22 00:26:44;;;;;;;0.20;0.20;;;;;;;;;;5038435;28;20045;-89
2024/03/22 00:29:10;;;;;;;0.20;0.20;;;;;;;;;;5038009;28;20040;-90
2024/03/22 00:31:36;;;;;;;0.52;0.47;;;;;;;;;;5054534;28;20041;-89
2024/03/22 00:34:02;;;;;;;0.60;0.60;;;;;;;;;;5038249;28;20037;-89
2024/03/22 00:36:28;;;;;;;0.10;0.10;;;;;;;;;;5055027;28;20036;-89
2024/03/22 00:38:54;;;;;;;0.10;0.10;;;;;;;;;;5038220;28;20463;-89
2024/03/22 00:41:20;;;;;;;0.30;0.30;;;;;;;;;;5037981;28;20044;-88
2024/03/22 00:43:46;;;;;;;1.08;0.50;;;;;;;;;;5054425;28;20094;-89
2024/03/22 00:46:12;;;;;;;0.30;0.30;;;;;;;;;;5037858;28;20102;-89
2024/03/22 00:48:38;;;;;;;0.20;0.20;;;;;;;;;;5037815;28;20514;-89
2024/03/22 00:51:04;;;;;;;0.20;0.20;;;;;;;;;;5054401;28;20041;-90
2024/03/22 00:53:30;;;;;;;0.30;0.30;;;;;;;;;;5038128;28;20068;-89
2024/03/22 00:55:58;;;;;;;0.10;0.10;;;;;;;;;;5037804;28;20037;-89
2024/03/22 00:58:24;;;;;;;0.10;0.10;;;;;;;;;;5037848;28;20079;-90
2024/03/22 01:00:51;;;;;;;0.20;0.20;;;;;;;;;;5037754;28;20578;-90
2024/03/22 01:03:17;;;;;;;0.30;0.22;;;;;;;;;;5037452;28;20045;-89
2024/03/22 01:05:44;;;;;;;0.20;0.20;;;;;;;;;;5053788;28;20130;-89
2024/03/22 01:08:10;;;;;;;5.28;0.57;;;;;;;;;;5037373;28;20107;-89
2024/03/22 01:10:36;;;;;;;0.25;0.25;;;;;;;;;;5037846;28;20473;-89
2024/03/22 01:13:02;;;;;;;0.32;0.32;;;;;;;;;;5037727;28;20041;-89
2024/03/22 01:15:28;;;;;;;0.25;0.25;;;;;;;;;;5037264;28;20237;-90
2024/03/22 01:17:54;;;;;;;0.30;0.30;;;;;;;;;;5053744;28;20079;-91
2024/03/22 01:20:20;;;;;;;0.10;0.10;;;;;;;;;;5054101;28;20464;-89
2024/03/22 01:22:46;;;;;;;0.43;0.43;;;;;;;;;;5037286;28;20191;-90
2024/03/22 01:25:12;;;;;;;0.57;0.57;;;;;;;;;;5053782;28;20037;-89
2024/03/22 01:27:38;;;;;;;0.10;0.10;;;;;;;;;;5053666;28;20037;-88
2024/03/22 01:30:04;;;;;;;0.30;0.30;;;;;;;;;;5037031;28;20048;-90
2024/03/22 01:32:30;;;;;;;1.20;0.73;;;;;;;;;;5036952;28;20033;-89
2024/03/22 01:34:57;;;;;;;0.10;0.10;;;;;;;;;;5036989;28;20056;-89
2024/03/22 01:37:23;;;;;;;0.63;0.40;;;;;;;;;;5036577;28;20076;-90
2024/03/22 01:39:52;;;;;;;0.17;0.17;;;;;;;;;;5053311;28;20080;-89
2024/03/22 01:42:18;;;;;;;0.50;0.50;;;;;;;;;;5036790;28;20045;-90
2024/03/22 01:44:44;;;;;;;1.17;0.60;;;;;;;;;;5036964;28;20045;-89
2024/03/22 01:47:10;;;;;;;0.20;0.20;;;;;;;;;;5053233;28;20041;-89
2024/03/22 01:49:36;;;;;;;0.38;0.20;;;;;;;;;;5036551;28;20477;-90
2024/03/22 01:52:03;;;;;;;0.30;0.30;;;;;;;;;;5036315;28;20037;-88
2024/03/22 01:54:29;;;;;;;0.10;0.10;;;;;;;;;;5036312;28;20045;-86
2024/03/22 01:56:56;;;;;;;0.30;0.30;;;;;;;;;;5036491;28;20076;-88
2024/03/22 01:59:22;;;;;;;0.20;0.20;;;;;;;;;;5036392;28;20036;-87
2024/03/22 02:01:49;;;;;;;1.67;0.30;;;;;;;;;;5036154;28;20266;-89
2024/03/22 02:04:15;;;;;;;0.30;0.30;;;;;;;;;;5036233;28;20044;-88
2024/03/22 02:06:42;;;;;;;0.70;0.63;;;;;;;;;;5036083;28;20036;-89
2024/03/22 02:09:10;;;;;;;0.52;0.50;;;;;;;;;;5036424;28;20040;-90
2024/03/22 02:11:39;;;;;;;0.10;0.10;;;;;;;;;;5036429;28;20044;-88
2024/03/22 02:14:05;;;;;;;0.20;0.20;;;;;;;;;;5036534;28;20044;-89
2024/03/22 02:16:31;;;;;;;0.20;0.20;;;;;;;;;;5052673;28;20045;-88
2024/03/22 02:18:57;;;;;;;0.20;0.20;;;;;;;;;;5052699;28;20064;-88
2024/03/22 02:21:23;;;;;;;0.10;0.10;;;;;;;;;;5035976;28;20045;-89
2024/03/22 02:23:49;;;;;;;0.40;0.30;;;;;;;;;;5035781;28;20040;-89
2024/03/22 02:26:15;;;;;;;0.28;0.28;;;;;;;;;;5035566;28;20326;-88
2024/03/22 02:28:41;;;;;;;0.57;0.50;;;;;;;;;;5051580;28;20041;-88
2024/03/22 02:31:07;;;;;;;0.43;0.43;;;;;;;;;;5035963;28;20124;-89
2024/03/22 02:33:33;;;;;;;0.30;0.30;;;;;;;;;;5035715;28;20204;-89
2024/03/22 02:35:59;;;;;;;0.13;0.13;;;;;;;;;;5035686;28;20416;-88
2024/03/22 02:38:25;;;;;;;0.80;0.80;;;;;;;;;;5035611;28;20045;-89
2024/03/22 02:40:52;;;;;;;0.32;0.32;;;;;;;;;;5035404;28;20040;-89
2024/03/22 02:43:18;;;;;;;0.10;0.10;;;;;;;;;;5035620;28;20068;-88
2024/03/22 02:45:45;;;;;;;0.20;0.20;;;;;;;;;;5035646;28;20048;-90
2024/03/22 02:48:11;;;;;;;3.03;0.75;;;;;;;;;;5035828;28;20037;-90
2024/03/22 02:50:37;;;;;;;0.10;0.10;;;;;;;;;;5051969;28;20037;-89
2024/03/22 02:53:03;;;;;;;1.35;0.30;;;;;;;;;;5035431;28;20395;-89
2024/03/22 02:55:29;;;;;;;0.63;0.63;;;;;;;;;;5036008;28;20431;-90
2024/03/22 02:57:56;;;;;;;0.10;0.10;;;;;;;;;;5035446;28;20040;-89
2024/03/22 03:00:22;;;;;;;0.38;0.38;;;;;;;;;;5035353;28;20435;-89
2024/03/22 03:02:48;;;;;;;0.55;0.35;;;;;;;;;;5035336;28;20037;-90
2024/03/22 03:05:14;;;;;;;0.20;0.20;;;;;;;;;;5035123;28;20086;-90
2024/03/22 03:07:41;;;;;;;0.52;0.40;;;;;;;;;;5034939;28;20559;-88
2024/03/22 03:10:07;;;;;;;0.10;0.10;;;;;;;;;;5034990;28;20124;-88
2024/03/22 03:12:33;;;;;;;1.45;0.45;;;;;;;;;;5035413;28;20040;-89
2024/03/22 03:14:59;;;;;;;0.10;0.10;;;;;;;;;;5034916;28;20077;-88
2024/03/22 03:17:25;;;;;;;0.15;0.15;;;;;;;;;;5035033;28;20048;-89
2024/03/22 03:19:51;;;;;;;0.52;0.52;;;;;;;;;;5051285;28;20041;-88
2024/03/22 03:22:17;;;;;;;0.70;0.70;;;;;;;;;;5051574;28;20045;-89
2024/03/22 03:24:44;;;;;;;0.20;0.20;;;;;;;;;;5035123;28;20036;-89
2024/03/22 03:27:10;;;;;;;0.43;0.43;;;;;;;;;;5034911;28;20041;-89
2024/03/22 03:29:36;;;;;;;0.20;0.20;;;;;;;;;;5051644;28;20044;-89
2024/03/22 03:32:02;;;;;;;0.40;0.40;;;;;;;;;;5034627;28;20094;-90
2024/03/22 03:34:28;;;;;;;0.10;0.10;;;;;;;;;;5034922;28;20277;-89
2024/03/22 03:36:54;;;;;;;0.47;0.47;;;;;;;;;;5034960;28;20045;-89
2024/03/22 03:39:20;;;;;;;0.88;0.30;;;;;;;;;;5035129;28;20033;-89
2024/03/22 03:41:46;;;;;;;0.10;0.10;;;;;;;;;;5034780;28;20052;-90
2024/03/22 03:44:12;;;;;;;0.10;0.10;;;;;;;;;;5034993;28;20087;-90
2024/03/22 03:46:38;;;;;;;0.35;0.35;;;;;;;;;;5034601;28;20049;-90
2024/03/22 03:49:04;;;;;;;0.40;0.40;;;;;;;;;;5034928;28;20132;-89
2024/03/22 03:51:30;;;;;;;0.32;0.28;;;;;;;;;;5050821;28;20463;-89
2024/03/22 03:53:56;;;;;;;0.70;0.70;;;;;;;;;;5034772;28;20043;-90
2024/03/22 03:56:22;;;;;;;0.57;0.20;;;;;;;;;;5035031;28;20039;-90
2024/03/22 03:58:48;;;;;;;0.63;0.63;;;;;;;;;;5034805;28;20450;-90
2024/03/22 04:01:14;;;;;;;0.80;0.80;;;;;;;;;;5034824;28;20116;-89
2024/03/22 04:03:40;;;;;;;0.30;0.30;;;;;;;;;;5051440;28;20124;-89
2024/03/22 04:06:06;;;;;;;0.30;0.30;;;;;;;;;;5034533;28;20083;-89
2024/03/22 04:08:32;;;;;;;0.60;0.60;;;;;;;;;;5034746;28;20057;-89
2024/03/22 04:10:58;;;;;;;0.77;0.52;;;;;;;;;;5034635;28;20045;-90
2024/03/22 04:13:25;;;;;;;0.13;0.13;;;;;;;;;;5034475;28;20047;-90
2024/03/22 04:15:51;;;;;;;0.20;0.20;;;;;;;;;;5034727;28;20048;-89
2024/03/22 04:18:17;;;;;;;0.20;0.20;;;;;;;;;;5034956;28;20427;-89
2024/03/22 04:20:43;;;;;;;0.30;0.30;;;;;;;;;;5034734;28;20105;-89
2024/03/22 04:23:10;;;;;;;0.10;0.10;;;;;;;;;;5051982;28;20579;-90
2024/03/22 04:25:36;;;;;;;0.20;0.20;;;;;;;;;;5034498;28;20048;-90
2024/03/22 04:28:02;;;;;;;0.20;0.20;;;;;;;;;;5034475;28;20037;-90
2024/03/22 04:30:28;;;;;;;1.77;0.43;;;;;;;;;;5034433;28;20037;-90
2024/03/22 04:32:54;;;;;;;0.57;0.57;;;;;;;;;;5034470;28;20356;-91
2024/03/22 04:35:20;;;;;;;1.00;0.98;;;;;;;;;;5034684;28;20059;-91
2024/03/22 04:37:46;;;;;;;0.35;0.35;;;;;;;;;;5034624;28;20101;-90
2024/03/22 04:40:12;;;;;;;0.20;0.20;;;;;;;;;;5050880;28;20041;-89
2024/03/22 04:42:39;;;;;;;0.20;0.20;;;;;;;;;;5034708;28;20526;-89
2024/03/22 04:45:05;;;;;;;0.55;0.40;;;;;;;;;;5034564;28;20124;-90
2024/03/22 04:47:31;;;;;;;0.20;0.20;;;;;;;;;;5034854;28;20116;-90
2024/03/22 04:49:57;;;;;;;0.55;0.40;;;;;;;;;;5035043;28;20084;-89
2024/03/22 04:52:23;;;;;;;0.57;0.57;;;;;;;;;;5036518;28;20477;-89
2024/03/22 04:54:49;;;;;;;0.22;0.20;;;;;;;;;;5055106;28;20507;-90
2024/03/22 04:57:15;;;;;;;0.65;0.65;;;;;;;;;;5054751;28;20037;-89
2024/03/22 04:59:41;;;;;;;0.13;0.13;;;;;;;;;;5054044;28;20045;-88
2024/03/22 05:02:07;;;;;;;0.20;0.20;;;;;;;;;;5037576;28;20055;-88
2024/03/22 05:04:33;;;;;;;0.35;0.32;;;;;;;;;;5053696;28;20136;-88
2024/03/22 05:06:59;;;;;;;3.72;0.60;;;;;;;;;;5037080;28;20072;-88
2024/03/22 05:09:25;;;;;;;0.47;0.47;;;;;;;;;;5037378;28;20045;-88
2024/03/22 05:11:52;;;;;;;5.57;0.68;;;;;;;;;;5053607;28;20116;-89
2024/03/22 05:14:19;;;;;;;0.35;0.35;;;;;;;;;;5053909;28;20033;-89
2024/03/22 05:16:45;;;;;;;0.30;0.30;;;;;;;;;;5037200;28;20106;-88
2024/03/22 05:19:11;;;;;;;0.10;0.10;;;;;;;;;;5053385;28;20037;-88
2024/03/22 05:21:37;;;;;;;0.20;0.20;;;;;;;;;;5053388;28;20535;-89
2024/03/22 05:24:03;;;;;;;0.20;0.20;;;;;;;;;;5036722;28;20045;-88
2024/03/22 05:26:32;;;;;;;0.20;0.20;;;;;;;;;;5036761;28;20481;-88
2024/03/22 05:28:58;;;;;;;0.32;0.32;;;;;;;;;;5037170;28;20044;-88
2024/03/22 05:31:24;;;;;;;1.50;0.40;;;;;;;;;;5036653;28;20040;-89
2024/03/22 05:33:50;;;;;;;0.63;0.30;;;;;;;;;;5039393;28;20041;-88
2024/03/22 05:36:16;;;;;;;0.25;0.25;;;;;;;;;;5053582;28;20044;-89
2024/03/22 05:38:42;;;;;;;1.65;0.40;;;;;;;;;;5036876;28;20041;-89
2024/03/22 05:41:08;;;;;;;0.20;0.20;;;;;;;;;;5036628;28;20080;-88
2024/03/22 05:43:34;;;;;;;2.83;0.30;;;;;;;;;;5038826;28;20049;-88
2024/03/22 05:46:00;;;;;;;0.60;0.60;;;;;;;;;;5053167;28;20048;-89
2024/03/22 05:48:26;;;;;;;0.20;0.20;;;;;;;;;;5037306;28;20110;-89
2024/03/22 05:50:52;;;;;;;0.13;0.13;;;;;;;;;;5036956;28;20037;-88
2024/03/22 05:53:18;;;;;;;0.20;0.20;;;;;;;;;;5053579;28;20052;-89
2024/03/22 05:55:44;;;;;;;0.70;0.43;;;;;;;;;;5053712;28;20075;-89
2024/03/22 05:58:10;;;;;;;1.85;1.75;;;;;;;;;;5038280;28;20128;-90
2024/03/22 06:00:36;;;;;;;0.17;0.17;;;;;;;;;;5056160;28;20044;-89
2024/03/22 06:03:03;;;;;;;0.15;0.15;;;;;;;;;;5041428;28;20041;-89
2024/03/22 06:05:29;;;;;;;0.20;0.20;;;;;;;;;;5066071;28;20037;-89
2024/03/22 06:07:58;;;;;;;0.10;0.10;;;;;;;;;;5059846;28;20057;-89
2024/03/22 06:10:24;;;;;;;0.28;0.28;;;;;;;;;;5037006;28;20048;-89
2024/03/22 06:12:50;;;;;;;0.17;0.17;;;;;;;;;;5036266;28;20043;-90
2024/03/22 06:15:16;;;;;;;0.15;0.15;;;;;;;;;;5036304;28;20131;-90
2024/03/22 06:17:42;;;;;;;0.20;0.20;;;;;;;;;;5036071;28;20043;-88
2024/03/22 06:20:09;;;;;;;0.70;0.47;;;;;;;;;;5036154;28;20451;-88
2024/03/22 06:22:35;;;;;;;0.10;0.10;;;;;;;;;;5035873;28;20041;-88
2024/03/22 06:25:02;;;;;;;0.50;0.30;;;;;;;;;;5035825;28;20406;-88
2024/03/22 06:27:28;;;;;;;0.17;0.17;;;;;;;;;;5035678;28;20045;-87
2024/03/22 06:29:54;;;;;;;0.22;0.22;;;;;;;;;;5035413;28;20033;-88
2024/03/22 06:32:20;;;;;;;0.52;0.52;;;;;;;;;;5036078;28;20041;-87
2024/03/22 06:34:46;;;;;;;0.40;0.40;;;;;;;;;;5035835;28;20063;-90
2024/03/22 06:37:12;;;;;;;0.65;0.50;;;;;;;;;;5051983;28;20052;-85
2024/03/22 06:39:38;;;;;;;0.85;0.85;;;;;;;;;;5035401;28;20049;-86
2024/03/22 06:42:04;;;;;;;0.70;0.50;;;;;;;;;;5035280;28;20048;-86
2024/03/22 06:44:31;;;;;;;0.77;0.30;;;;;;;;;;5035810;28;20047;-85
2024/03/22 06:46:57;;;;;;;0.20;0.20;;;;;;;;;;5035580;28;20565;-86
2024/03/22 06:49:23;;;;;;;0.32;0.32;;;;;;;;;;5035503;28;20041;-86
2024/03/22 06:51:49;;;;;;;1.02;0.35;;;;;;;;;;5068281;28;20045;-87
2024/03/22 06:54:15;;;;;;;0.20;0.20;;;;;;;;;;5035104;28;20565;-86
2024/03/22 06:56:41;;;;;;;0.43;0.43;;;;;;;;;;5051420;28;20132;-88
2024/03/22 06:59:07;;;;;;;0.30;0.30;;;;;;;;;;5035488;28;20071;-91
2024/03/22 07:01:33;;;;;;;1.05;0.95;;;;;;;;;;5052264;28;20078;-89
2024/03/22 07:03:59;;;;;;;0.22;0.22;;;;;;;;;;5035289;28;20518;-89
2024/03/22 07:06:25;;;;;;;0.60;0.60;;;;;;;;;;5035352;28;20045;-90
2024/03/22 07:08:51;;;;;;;0.20;0.20;;;;;;;;;;5035594;28;20053;-90
2024/03/22 07:11:17;;;;;;;0.10;0.10;;;;;;;;;;5052138;28;20202;-90
2024/03/22 07:13:43;;;;;;;0.30;0.30;;;;;;;;;;5035757;28;20037;-90
2024/03/22 07:16:09;;;;;;;0.22;0.22;;;;;;;;;;5051543;28;20041;-91
2024/03/22 07:18:36;;;;;;;0.38;0.38;;;;;;;;;;5035612;28;20488;-90
2024/03/22 07:21:03;;;;;;;0.28;0.28;;;;;;;;;;5035365;28;20041;-90
2024/03/22 07:23:29;;;;;;;0.25;0.25;;;;;;;;;;5051805;28;20147;-90
2024/03/22 07:25:55;;;;;;;5.45;0.57;;;;;;;;;;5035004;28;20040;-89
2024/03/22 07:28:21;;;;;;;0.43;0.43;;;;;;;;;;5035082;28;20091;-89
2024/03/22 07:30:47;;;;;;;0.10;0.10;;;;;;;;;;5034768;28;20401;-90
2024/03/22 07:33:16;;;;;;;0.88;0.75;;;;;;;;;;5034877;28;20381;-91
2024/03/22 07:35:43;;;;;;;0.28;0.28;;;;;;;;;;5035112;28;20059;-89
2024/03/22 07:38:10;;;;;;;1.55;0.40;;;;;;;;;;5034896;28;20094;-91
2024/03/22 07:40:36;;;;;;;0.25;0.25;;;;;;;;;;5051371;28;20048;-90
2024/03/22 07:43:08;;;;;;;0.20;0.20;;;;;;;;;;5035021;28;20069;-89
2024/03/22 07:45:37;;;;;;;0.95;0.57;;;;;;;;;;5035475;28;20500;-90
2024/03/22 07:48:03;;;;;;;0.10;0.10;;;;;;;;;;5034575;28;20083;-90
2024/03/22 07:50:29;;;;;;;0.73;0.73;;;;;;;;;;5035205;28;20037;-91
2024/03/22 07:52:55;;;;;;;0.10;0.10;;;;;;;;;;5034996;28;20041;-89
2024/03/22 07:55:22;;;;;;;0.47;0.47;;;;;;;;;;5020176;28;20045;-90
2024/03/22 07:57:48;;;;;;;0.43;0.43;;;;;;;;;;5014163;28;20124;-90
2024/03/22 08:00:14;;;;;;;0.30;0.30;;;;;;;;;;5013631;28;20045;-90
2024/03/22 08:02:41;;;;;;;0.30;0.20;;;;;;;;;;5015876;28;20040;-92
2024/03/22 08:05:08;;;;;;;0.47;0.47;;;;;;;;;;5031008;28;20034;-91
2024/03/22 08:07:34;;;;;;;0.25;0.25;;;;;;;;;;5013165;28;20067;-91
2024/03/22 08:10:01;;;;;;;0.52;0.52;;;;;;;;;;5028060;28;20037;-91
2024/03/22 08:12:27;;;;;;;0.20;0.20;;;;;;;;;;5031117;28;20034;-88
2024/03/22 08:14:53;;;;;;;0.20;0.20;;;;;;;;;;5051248;28;20037;-89
2024/03/22 08:17:19;;;;;;;0.20;0.20;;;;;;;;;;5034117;28;20117;-88
2024/03/22 08:19:45;;;;;;;0.20;0.20;;;;;;;;;;5015653;28;20485;-88
2024/03/22 08:22:11;;;;;;;0.20;0.20;;;;;;;;;;5018048;28;20516;-87
2024/03/22 08:24:37;;;;;;;0.15;0.15;;;;;;;;;;5031562;28;20080;-90
2024/03/22 08:27:04;;;;;;;0.20;0.20;;;;;;;;;;5023796;28;20508;-86
2024/03/22 08:29:30;;;;;;;0.30;0.30;;;;;;;;;;5017230;28;20069;-86
2024/03/22 08:31:56;;;;;;;0.10;0.10;;;;;;;;;;5034553;28;20401;-86
2024/03/22 08:34:22;;;;;;;0.10;0.10;;;;;;;;;;5041320;28;20071;-87
2024/03/22 08:36:48;;;;;;;0.17;0.17;;;;;;;;;;5018845;28;20048;-86
2024/03/22 08:39:15;;;;;;;0.47;0.47;;;;;;;;;;5035539;28;20055;-86
2024/03/22 08:41:41;;;;;;;0.40;0.20;;;;;;;;;;5036441;28;20044;-87
2024/03/22 08:44:07;;;;;;;0.17;0.17;;;;;;;;;;5037065;28;20055;-87
2024/03/22 08:46:33;;;;;;;0.10;0.10;;;;;;;;;;5037342;28;20083;-87
2024/03/22 08:48:59;;;;;;;0.20;0.20;;;;;;;;;;5054084;28;20392;-86
2024/03/22 08:51:26;;;;;;;0.20;0.20;;;;;;;;;;5053713;28;20040;-86
2024/03/22 08:53:52;;;;;;;0.10;0.10;;;;;;;;;;5037548;28;20076;-86
2024/03/22 08:56:18;;;;;;;0.20;0.20;;;;;;;;;;5037442;28;20051;-86
2024/03/22 08:58:44;;;;;;;0.10;0.10;;;;;;;;;;5053740;28;20559;-87
2024/03/22 09:01:10;;;;;;;0.20;0.20;;;;;;;;;;5036997;28;20083;-87
2024/03/22 09:03:37;;;;;;;0.20;0.20;;;;;;;;;;5053769;28;20136;-86
2024/03/22 09:06:03;;;;;;;0.20;0.20;;;;;;;;;;5036885;28;20541;-86
2024/03/22 09:08:29;;;;;;;0.10;0.10;;;;;;;;;;5037014;28;20131;-86
2024/03/22 09:10:55;;;;;;;0.20;0.20;;;;;;;;;;5037198;28;20033;-86
2024/03/22 09:13:21;;;;;;;0.10;0.10;;;;;;;;;;5036518;28;20063;-87
2024/03/22 09:15:47;;;;;;;0.10;0.10;;;;;;;;;;5019652;28;20041;-86
2024/03/22 09:18:13;;;;;;;0.22;0.22;;;;;;;;;;5036506;28;20119;-87
2024/03/22 09:20:41;;;;;;;0.20;0.20;;;;;;;;;;5052990;28;20049;-86
2024/03/22 09:23:07;;;;;;;1.65;0.63;;;;;;;;;;5053385;28;20451;-87
2024/03/22 09:25:33;;;;;;;0.10;0.10;;;;;;;;;;5036545;28;20197;-86
2024/03/22 09:27:59;;;;;;;0.22;0.22;;;;;;;;;;5037216;28;20041;-86
2024/03/22 09:30:27;;;;;;;0.10;0.10;;;;;;;;;;5036333;28;20041;-89
2024/03/22 09:32:56;;;;;;;0.20;0.20;;;;;;;;;;5019672;28;20037;-86
2024/03/22 09:35:23;;;;;;;0.10;0.10;;;;;;;;;;5052839;28;20129;-86
2024/03/22 09:37:49;;;;;;;0.20;0.20;;;;;;;;;;5052878;28;20052;-87
2024/03/22 09:40:15;;;;;;;0.10;0.10;;;;;;;;;;5020199;28;20037;-87
2024/03/22 09:42:42;;;;;;;0.20;0.20;;;;;;;;;;5036652;28;20440;-87
2024/03/22 09:45:08;;;;;;;0.10;0.10;;;;;;;;;;5036557;28;20356;-87
2024/03/22 09:47:35;;;;;;;0.10;0.10;;;;;;;;;;5010302;28;20045;-86
2024/03/22 09:50:01;;;;;;;0.20;0.20;;;;;;;;;;5032855;28;20037;-85
2024/03/22 09:52:27;;;;;;;0.20;0.20;;;;;;;;;;5016702;28;20037;-85
2024/03/22 09:54:53;;;;;;;0.10;0.10;;;;;;;;;;5016418;28;20033;-85
2024/03/22 09:57:19;;;;;;;0.10;0.10;;;;;;;;;;5035914;28;20041;-86
2024/03/22 09:59:46;;;;;;;0.10;0.10;;;;;;;;;;5017941;28;20072;-86
2024/03/22 10:02:15;;;;;;;0.20;0.20;;;;;;;;;;5033107;28;20037;-85
2024/03/22 10:04:41;;;;;;;2.58;0.40;;;;;;;;;;5034929;28;20040;-85
2024/03/22 10:07:09;;;;;;;0.10;0.10;;;;;;;;;;5033750;28;20044;-85
2024/03/22 10:09:35;;;;;;;0.28;0.17;;;;;;;;;;5033125;28;20037;-86
2024/03/22 10:12:01;;;;;;;0.10;0.10;;;;;;;;;;5034855;28;20041;-84
2024/03/22 10:14:27;;;;;;;0.10;0.10;;;;;;;;;;5034469;28;20033;-87
2024/03/22 10:16:56;;;;;;;0.10;0.10;;;;;;;;;;5050954;28;20080;-87
2024/03/22 10:19:22;;;;;;;0.10;0.10;;;;;;;;;;5028648;28;20117;-86
2024/03/22 10:21:49;;;;;;;0.10;0.10;;;;;;;;;;5015089;28;20378;-86
2024/03/22 10:24:15;;;;;;;0.32;0.32;;;;;;;;;;5047967;28;20148;-85
2024/03/22 10:26:41;;;;;;;0.35;0.20;;;;;;;;;;5015931;28;20045;-87
2024/03/22 10:29:08;;;;;;;0.28;0.28;;;;;;;;;;5034083;28;20037;-86
2024/03/22 10:31:35;;;;;;;0.10;0.10;;;;;;;;;;5035468;28;20044;-86
2024/03/22 10:34:03;;;;;;;0.10;0.10;;;;;;;;;;5018192;28;20135;-85
2024/03/22 10:36:30;;;;;;;0.10;0.10;;;;;;;;;;5018540;28;20059;-86
2024/03/22 10:38:57;;;;;;;0.80;0.80;;;;;;;;;;5003884;28;20045;-86
2024/03/22 10:41:23;;;;;;;0.73;0.28;;;;;;;;;;5014948;28;20103;-85
2024/03/22 10:43:49;;;;;;;0.30;0.30;;;;;;;;;;5023938;28;20040;-86
2024/03/22 10:46:15;;;;;;;0.20;0.20;;;;;;;;;;5031155;28;20106;-86
2024/03/22 10:48:41;;;;;;;0.35;0.35;;;;;;;;;;5056576;28;20063;-87
2024/03/22 10:51:07;;;;;;;0.20;0.20;;;;;;;;;;5017152;28;20048;-86
2024/03/22 10:53:33;;;;;;;0.30;0.20;;;;;;;;;;5034508;28;20044;-87
2024/03/22 10:55:59;;;;;;;0.20;0.20;;;;;;;;;;5035348;28;20056;-88
2024/03/22 10:58:25;;;;;;;0.10;0.10;;;;;;;;;;5050659;28;20078;-87
2024/03/22 11:00:52;;;;;;;0.10;0.10;;;;;;;;;;5018290;28;20449;-88
2024/03/22 11:03:23;;;;;;;0.22;0.22;;;;;;;;;;5018182;28;20124;-87
2024/03/22 11:05:58;;;;;;;0.20;0.20;;;;;;;;;;5021713;28;20048;-87
2024/03/22 11:08:27;;;;;;;0.13;0.13;;;;;;;;;;5034780;28;20688;-88
2024/03/22 11:10:53;;;;;;;0.10;0.10;;;;;;;;;;5019142;28;20043;-87
2024/03/22 11:13:19;;;;;;;0.10;0.10;;;;;;;;;;5034826;28;20461;-88
2024/03/22 11:15:49;;;;;;;0.20;0.20;;;;;;;;;;5034694;28;20044;-88
2024/03/22 11:18:15;;;;;;;0.10;0.10;;;;;;;;;;5018240;28;20047;-88
2024/03/22 11:20:42;;;;;;;0.10;0.10;;;;;;;;;;5023112;28;20053;-85
2024/03/22 11:23:09;;;;;;;0.10;0.10;;;;;;;;;;5014729;28;20086;-86
2024/03/22 11:25:35;;;;;;;0.17;0.17;;;;;;;;;;4997417;28;20045;-86
2024/03/22 11:28:01;;;;;;;0.10;0.10;;;;;;;;;;5047382;28;20488;-85
2024/03/22 11:30:31;;;;;;;0.20;0.20;;;;;;;;;;4997758;28;20481;-86
2024/03/22 11:32:57;;;;;;;0.13;0.13;;;;;;;;;;4997294;28;20083;-86
2024/03/22 11:35:23;;;;;;;0.10;0.10;;;;;;;;;;5007628;28;20497;-86
2024/03/22 11:37:51;;;;;;;0.10;0.10;;;;;;;;;;5015062;28;20182;-87
2024/03/22 11:40:17;;;;;;;0.10;0.10;;;;;;;;;;5032761;28;20358;-86
2024/03/22 11:42:44;;;;;;;0.20;0.20;;;;;;;;;;5031707;28;20449;-86
2024/03/22 11:45:10;;;;;;;0.20;0.20;;;;;;;;;;5050944;28;20051;-86
2024/03/22 11:47:37;;;;;;;0.10;0.10;;;;;;;;;;5032049;28;20033;-88
2024/03/22 11:50:03;;;;;;;0.52;0.52;;;;;;;;;;5015709;28;20047;-88
2024/03/22 11:52:29;;;;;;;0.22;0.22;;;;;;;;;;5032785;28;20484;-87
2024/03/22 11:54:55;;;;;;;0.10;0.10;;;;;;;;;;5032531;28;20048;-86
2024/03/22 11:57:21;;;;;;;0.10;0.10;;;;;;;;;;5031863;28;20049;-85
2024/03/22 11:59:47;;;;;;;0.10;0.10;;;;;;;;;;5048536;28;20049;-86
2024/03/22 12:02:13;;;;;;;0.20;0.20;;;;;;;;;;5028679;28;20038;-84
2024/03/22 12:04:43;;;;;;;0.10;0.10;;;;;;;;;;5048214;28;20072;-86
2024/03/22 12:07:18;;;;;;;0.22;0.22;;;;;;;;;;5036739;28;20494;-85
2024/03/22 12:09:44;;;;;;;0.10;0.10;;;;;;;;;;5037176;28;20048;-85
2024/03/22 12:12:11;;;;;;;0.10;0.10;;;;;;;;;;5033723;28;20067;-86
2024/03/22 12:14:38;;;;;;;0.20;0.20;;;;;;;;;;5026707;28;20128;-86
2024/03/22 12:17:04;;;;;;;0.20;0.20;;;;;;;;;;5037013;28;20040;-85
2024/03/22 12:19:30;;;;;;;0.20;0.20;;;;;;;;;;5052622;28;20171;-87
2024/03/22 12:21:56;;;;;;;0.17;0.17;;;;;;;;;;5035774;28;20119;-84
2024/03/22 12:24:23;;;;;;;0.38;0.20;;;;;;;;;;5036988;28;20516;-86
2024/03/22 12:26:49;;;;;;;0.20;0.20;;;;;;;;;;5053250;28;20388;-86
2024/03/22 12:29:18;;;;;;;0.30;0.30;;;;;;;;;;5053407;28;20146;-85
2024/03/22 12:31:44;;;;;;;0.10;0.10;;;;;;;;;;5037541;28;20045;-85
2024/03/22 12:34:10;;;;;;;0.10;0.10;;;;;;;;;;5053915;28;20044;-85
2024/03/22 12:36:36;;;;;;;0.10;0.10;;;;;;;;;;5037399;28;20040;-86
2024/03/22 12:39:03;;;;;;;0.20;0.20;;;;;;;;;;5037498;28;20512;-86
2024/03/22 12:41:29;;;;;;;0.20;0.20;;;;;;;;;;5054076;28;20063;-87
2024/03/22 12:43:56;;;;;;;0.10;0.10;;;;;;;;;;5037287;28;20048;-85
2024/03/22 12:46:22;;;;;;;0.10;0.10;;;;;;;;;;5053735;28;20041;-86
2024/03/22 12:48:48;;;;;;;0.10;0.10;;;;;;;;;;5037079;28;20128;-87
2024/03/22 12:51:14;;;;;;;0.10;0.10;;;;;;;;;;5037388;28;20032;-88
2024/03/22 12:53:40;;;;;;;0.10;0.10;;;;;;;;;;5036778;28;20087;-87
2024/03/22 12:56:06;;;;;;;0.10;0.10;;;;;;;;;;5053343;28;20051;-88
2024/03/22 12:58:32;;;;;;;0.20;0.20;;;;;;;;;;5030152;28;20116;-87
2024/03/22 13:01:02;;;;;;;0.20;0.20;;;;;;;;;;5035173;28;20040;-86
2024/03/22 13:03:28;;;;;;;0.20;0.20;;;;;;;;;;5034586;28;20040;-86
2024/03/22 13:05:54;;;;;;;0.10;0.10;;;;;;;;;;5031553;28;20073;-87
2024/03/22 13:08:20;;;;;;;0.20;0.20;;;;;;;;;;5041516;28;20121;-89
2024/03/22 13:10:47;;;;;;;0.10;0.10;;;;;;;;;;5016641;28;20067;-90
2024/03/22 13:13:16;;;;;;;0.20;0.20;;;;;;;;;;5028948;28;20083;-91
2024/03/22 13:15:42;;;;;;;0.20;0.20;;;;;;;;;;5035127;28;20068;-89
2024/03/22 13:18:09;;;;;;;0.10;0.10;;;;;;;;;;5052625;28;20212;-90
2024/03/22 13:20:35;;;;;;;0.25;0.25;;;;;;;;;;5029864;28;20041;-89
2024/03/22 13:23:01;;;;;;;0.10;0.10;;;;;;;;;;5050809;28;20044;-91
2024/03/22 13:25:27;;;;;;;0.20;0.20;;;;;;;;;;5038498;28;20429;-96
2024/03/22 13:27:54;;;;;;;0.20;0.20;;;;;;;;;;5043966;28;20044;-94
2024/03/22 13:30:20;;;;;;;0.10;0.10;;;;;;;;;;5037758;28;20033;-92
2024/03/22 13:32:46;;;;;;;0.10;0.10;;;;;;;;;;5037860;28;20071;-94
2024/03/22 13:35:12;;;;;;;0.20;0.20;;;;;;;;;;5037896;28;20041;-93
2024/03/22 13:37:38;;;;;;;0.20;0.20;;;;;;;;;;5041392;28;20045;-96
2024/03/22 13:40:04;;;;;;;0.10;0.10;;;;;;;;;;5038546;28;20248;-93
2024/03/22 13:42:30;;;;;;;0.10;0.10;;;;;;;;;;5038216;28;20088;-94
2024/03/22 13:44:59;;;;;;;0.10;0.10;;;;;;;;;;5038555;28;20047;-95
2024/03/22 13:47:26;;;;;;;0.65;0.65;;;;;;;;;;5038882;28;20508;-95
2024/03/22 13:49:53;;;;;;;0.10;0.10;;;;;;;;;;5038166;28;20047;-95
2024/03/22 13:52:20;;;;;;;0.10;0.10;;;;;;;;;;5054514;28;20094;-95
2024/03/22 13:54:46;;;;;;;0.20;0.20;;;;;;;;;;5037829;28;20037;-91
2024/03/22 13:57:13;;;;;;;0.10;0.10;;;;;;;;;;5037890;28;20076;-95
2024/03/22 13:59:39;;;;;;;0.20;0.20;;;;;;;;;;5038501;28;20094;-95
2024/03/22 14:02:07;;;;;;;0.10;0.10;;;;;;;;;;5037636;28;20129;-94
2024/03/22 14:04:33;;;;;;;0.10;0.10;;;;;;;;;;5037543;28;20603;-94
2024/03/22 14:07:01;;;;;;;0.20;0.20;;;;;;;;;;5053398;28;20069;-94
2024/03/22 14:09:29;;;;;;;0.20;0.20;;;;;;;;;;5038631;28;20033;-96
2024/03/22 14:11:55;;;;;;;0.10;0.10;;;;;;;;;;5038364;28;20068;-96
2024/03/22 14:14:21;;;;;;;0.30;0.30;;;;;;;;;;5037580;28;20086;-93
2024/03/22 14:16:49;;;;;;;0.20;0.20;;;;;;;;;;5037808;28;20293;-95
2024/03/22 14:19:18;;;;;;;0.75;0.50;;;;;;;;;;5040629;28;20106;-92
2024/03/22 14:21:44;;;;;;;0.20;0.20;;;;;;;;;;5037841;28;20044;-94
2024/03/22 14:24:10;;;;;;;0.13;0.13;;;;;;;;;;5036036;28;20396;-94
2024/03/22 14:26:42;;;;;;;0.20;0.20;;;;;;;;;;5037135;28;20044;-94
2024/03/22 14:29:14;;;;;;;0.20;0.20;;;;;;;;;;5038490;28;20048;-93
2024/03/22 14:31:42;;;;;;;0.10;0.10;;;;;;;;;;5053017;28;20041;-92
2024/03/22 14:34:14;;;;;;;0.20;0.20;;;;;;;;;;5052253;28;20505;-90
2024/03/22 14:36:40;;;;;;;3.40;1.38;;;;;;;;;;5052191;28;20197;-90
2024/03/22 14:39:07;;;;;;;0.20;0.20;;;;;;;;;;5035706;28;20131;-90